Terminal Aerodrome Forecast
Issued by NWS Wichita, KS

Home | Current Version | Previous Version | Graphics & Text | Print | Product List | Glossary On
Versions: 1 2 3 4 5 6 7 8 9 10 11 12 13 14 15 16 17 18
000
FTUS43 KICT 251720
TAFICT
TAF
KICT 251720Z 2518/2618 32015G21KT P6SM SCT025
     FM251900 33012KT P6SM BKN025
     FM260100 04014G20KT P6SM OVC015
     FM261100 07015KT P6SM OVC015=

USA.gov is the U.S. government's official web portal to all federal, state and local government web resources and services.